sensor_id;sensor_type;location;lat;lon;timestamp;temperature;humidity
41294;DHT22;27037;52.010;4.446;2022-08-19T00:00:08;19.20;99.90
41294;DHT22;27037;52.010;4.446;2022-08-19T00:02:35;19.20;99.90
41294;DHT22;27037;52.010;4.446;2022-08-19T00:05:02;19.10;99.90
41294;DHT22;27037;52.010;4.446;2022-08-19T00:07:28;19.10;99.90
41294;DHT22;27037;52.010;4.446;2022-08-19T00:09:53;19.10;99.90
41294;DHT22;27037;52.010;4.446;2022-08-19T00:12:19;19.00;99.90
41294;DHT22;27037;52.010;4.446;2022-08-19T00:14:45;19.00;99.90
41294;DHT22;27037;52.010;4.446;2022-08-19T00:17:10;19.00;99.90
41294;DHT22;27037;52.010;4.446;2022-08-19T00:19:38;19.00;99.90
41294;DHT22;27037;52.010;4.446;2022-08-19T00:22:04;19.00;99.90
41294;DHT22;27037;52.010;4.446;2022-08-19T00:24:31;19.00;99.90
41294;DHT22;27037;52.010;4.446;2022-08-19T00:26:57;18.90;99.90
41294;DHT22;27037;52.010;4.446;2022-08-19T00:29:24;18.90;99.90
41294;DHT22;27037;52.010;4.446;2022-08-19T00:31:50;18.90;99.90
41294;DHT22;27037;52.010;4.446;2022-08-19T00:34:20;18.90;99.90
41294;DHT22;27037;52.010;4.446;2022-08-19T00:36:46;18.90;99.90
41294;DHT22;27037;52.010;4.446;2022-08-19T00:39:13;18.90;99.90
41294;DHT22;27037;52.010;4.446;2022-08-19T00:41:41;18.90;99.90
41294;DHT22;27037;52.010;4.446;2022-08-19T00:44:13;18.90;99.90
41294;DHT22;27037;52.010;4.446;2022-08-19T00:46:41;18.90;99.90
41294;DHT22;27037;52.010;4.446;2022-08-19T00:52:02;18.90;99.90
41294;DHT22;27037;52.010;4.446;2022-08-19T00:54:29;18.80;99.90
41294;DHT22;27037;52.010;4.446;2022-08-19T00:56:57;18.80;99.90
41294;DHT22;27037;52.010;4.446;2022-08-19T00:59:23;18.80;99.90
41294;DHT22;27037;52.010;4.446;2022-08-19T01:01:49;18.80;99.90
41294;DHT22;27037;52.010;4.446;2022-08-19T01:04:15;18.80;99.90
41294;DHT22;27037;52.010;4.446;2022-08-19T01:06:41;18.80;99.90
41294;DHT22;27037;52.010;4.446;2022-08-19T01:09:07;18.80;99.90
41294;DHT22;27037;52.010;4.446;2022-08-19T01:11:43;18.80;99.90
41294;DHT22;27037;52.010;4.446;2022-08-19T01:14:10;18.90;99.90
41294;DHT22;27037;52.010;4.446;2022-08-19T01:16:37;18.80;99.90
41294;DHT22;27037;52.010;4.446;2022-08-19T01:19:17;18.80;99.90
41294;DHT22;27037;52.010;4.446;2022-08-19T01:21:50;18.80;99.90
41294;DHT22;27037;52.010;4.446;2022-08-19T01:24:17;18.80;99.90
41294;DHT22;27037;52.010;4.446;2022-08-19T01:26:44;18.80;99.90
41294;DHT22;27037;52.010;4.446;2022-08-19T01:29:10;18.80;99.90
41294;DHT22;27037;52.010;4.446;2022-08-19T01:31:36;18.80;99.90
41294;DHT22;27037;52.010;4.446;2022-08-19T01:34:05;18.80;99.90
41294;DHT22;27037;52.010;4.446;2022-08-19T01:36:40;18.70;99.90
41294;DHT22;27037;52.010;4.446;2022-08-19T01:39:10;18.70;99.90
41294;DHT22;27037;52.010;4.446;2022-08-19T01:41:36;18.70;99.90
41294;DHT22;27037;52.010;4.446;2022-08-19T01:44:02;18.70;99.90
41294;DHT22;27037;52.010;4.446;2022-08-19T01:46:30;18.80;99.90
41294;DHT22;27037;52.010;4.446;2022-08-19T01:48:55;18.70;99.90
41294;DHT22;27037;52.010;4.446;2022-08-19T01:51:21;18.80;99.90
41294;DHT22;27037;52.010;4.446;2022-08-19T01:53:48;18.80;99.90
41294;DHT22;27037;52.010;4.446;2022-08-19T01:56:14;18.70;99.90
41294;DHT22;27037;52.010;4.446;2022-08-19T01:58:43;18.70;99.90
41294;DHT22;27037;52.010;4.446;2022-08-19T02:01:11;18.70;99.90
41294;DHT22;27037;52.010;4.446;2022-08-19T02:03:37;18.70;99.90
41294;DHT22;27037;52.010;4.446;2022-08-19T02:06:04;18.70;99.90
41294;DHT22;27037;52.010;4.446;2022-08-19T02:08:31;18.70;99.90
41294;DHT22;27037;52.010;4.446;2022-08-19T02:10:57;18.70;99.90
41294;DHT22;27037;52.010;4.446;2022-08-19T02:13:24;18.70;99.90
41294;DHT22;27037;52.010;4.446;2022-08-19T02:15:50;18.70;99.90
41294;DHT22;27037;52.010;4.446;2022-08-19T02:18:16;18.80;99.90
41294;DHT22;27037;52.010;4.446;2022-08-19T02:20:43;18.70;99.90
41294;DHT22;27037;52.010;4.446;2022-08-19T02:23:10;18.80;99.90
41294;DHT22;27037;52.010;4.446;2022-08-19T02:25:37;18.70;99.90
41294;DHT22;27037;52.010;4.446;2022-08-19T02:28:04;18.70;99.90
41294;DHT22;27037;52.010;4.446;2022-08-19T02:30:30;18.70;99.90
41294;DHT22;27037;52.010;4.446;2022-08-19T02:32:55;18.70;99.90
41294;DHT22;27037;52.010;4.446;2022-08-19T02:35:21;18.70;99.90
41294;DHT22;27037;52.010;4.446;2022-08-19T02:37:47;18.70;99.90
41294;DHT22;27037;52.010;4.446;2022-08-19T02:40:32;18.70;99.90
41294;DHT22;27037;52.010;4.446;2022-08-19T02:43:03;18.70;99.90
41294;DHT22;27037;52.010;4.446;2022-08-19T02:45:38;18.70;99.90
41294;DHT22;27037;52.010;4.446;2022-08-19T02:48:04;18.60;99.90
41294;DHT22;27037;52.010;4.446;2022-08-19T02:50:30;18.60;99.90
41294;DHT22;27037;52.010;4.446;2022-08-19T02:52:56;18.60;99.90
41294;DHT22;27037;52.010;4.446;2022-08-19T02:55:21;18.60;99.90
41294;DHT22;27037;52.010;4.446;2022-08-19T02:57:47;18.60;99.90
41294;DHT22;27037;52.010;4.446;2022-08-19T03:00:14;18.60;99.90
41294;DHT22;27037;52.010;4.446;2022-08-19T03:02:40;18.60;99.90
41294;DHT22;27037;52.010;4.446;2022-08-19T03:05:07;18.60;99.90
41294;DHT22;27037;52.010;4.446;2022-08-19T03:07:33;18.60;99.90
41294;DHT22;27037;52.010;4.446;2022-08-19T03:09:59;18.50;99.90
41294;DHT22;27037;52.010;4.446;2022-08-19T03:12:24;18.60;99.90
41294;DHT22;27037;52.010;4.446;2022-08-19T03:14:50;18.50;99.90
41294;DHT22;27037;52.010;4.446;2022-08-19T03:17:17;18.50;99.90
41294;DHT22;27037;52.010;4.446;2022-08-19T03:19:42;18.50;99.90
41294;DHT22;27037;52.010;4.446;2022-08-19T03:22:08;18.50;99.90
41294;DHT22;27037;52.010;4.446;2022-08-19T03:24:34;18.40;99.90
41294;DHT22;27037;52.010;4.446;2022-08-19T03:27:00;18.50;99.90
41294;DHT22;27037;52.010;4.446;2022-08-19T03:29:28;18.40;99.90
41294;DHT22;27037;52.010;4.446;2022-08-19T03:31:53;18.40;99.90
41294;DHT22;27037;52.010;4.446;2022-08-19T03:34:25;18.40;99.90
41294;DHT22;27037;52.010;4.446;2022-08-19T03:36:53;18.40;99.90
41294;DHT22;27037;52.010;4.446;2022-08-19T03:39:20;18.40;99.90
41294;DHT22;27037;52.010;4.446;2022-08-19T03:41:48;18.40;99.90
41294;DHT22;27037;52.010;4.446;2022-08-19T03:44:18;18.40;99.90
41294;DHT22;27037;52.010;4.446;2022-08-19T03:46:47;18.40;99.90
41294;DHT22;27037;52.010;4.446;2022-08-19T03:49:13;18.40;99.90
41294;DHT22;27037;52.010;4.446;2022-08-19T03:51:39;18.40;99.90
41294;DHT22;27037;52.010;4.446;2022-08-19T03:54:07;18.30;99.90
41294;DHT22;27037;52.010;4.446;2022-08-19T03:56:38;18.40;99.90
41294;DHT22;27037;52.010;4.446;2022-08-19T03:59:07;18.40;99.90
41294;DHT22;27037;52.010;4.446;2022-08-19T04:01:32;18.30;99.90
41294;DHT22;27037;52.010;4.446;2022-08-19T04:04:00;18.30;99.90
41294;DHT22;27037;52.010;4.446;2022-08-19T04:06:28;18.30;99.90
41294;DHT22;27037;52.010;4.446;2022-08-19T04:08:56;18.30;99.90
41294;DHT22;27037;52.010;4.446;2022-08-19T04:11:25;18.30;99.90
41294;DHT22;27037;52.010;4.446;2022-08-19T04:13:52;18.30;99.90
41294;DHT22;27037;52.010;4.446;2022-08-19T04:16:22;18.20;99.90
41294;DHT22;27037;52.010;4.446;2022-08-19T04:18:48;18.20;99.90
41294;DHT22;27037;52.010;4.446;2022-08-19T04:21:23;18.20;99.90
41294;DHT22;27037;52.010;4.446;2022-08-19T04:23:48;18.20;99.90
41294;DHT22;27037;52.010;4.446;2022-08-19T04:26:19;18.20;99.90
41294;DHT22;27037;52.010;4.446;2022-08-19T04:28:46;18.20;99.90
41294;DHT22;27037;52.010;4.446;2022-08-19T04:31:17;18.20;99.90
41294;DHT22;27037;52.010;4.446;2022-08-19T04:33:43;18.20;99.90
41294;DHT22;27037;52.010;4.446;2022-08-19T04:36:20;18.20;99.90
41294;DHT22;27037;52.010;4.446;2022-08-19T04:38:48;18.30;99.90
41294;DHT22;27037;52.010;4.446;2022-08-19T04:41:14;18.40;99.90
41294;DHT22;27037;52.010;4.446;2022-08-19T04:43:58;18.40;99.90
41294;DHT22;27037;52.010;4.446;2022-08-19T04:46:23;18.40;99.90
41294;DHT22;27037;52.010;4.446;2022-08-19T04:48:49;18.50;99.90
41294;DHT22;27037;52.010;4.446;2022-08-19T04:51:15;18.50;99.90
41294;DHT22;27037;52.010;4.446;2022-08-19T04:53:41;18.50;99.90
41294;DHT22;27037;52.010;4.446;2022-08-19T04:56:12;18.60;99.90
41294;DHT22;27037;52.010;4.446;2022-08-19T04:58:40;18.60;99.90
41294;DHT22;27037;52.010;4.446;2022-08-19T05:01:09;18.70;99.90
41294;DHT22;27037;52.010;4.446;2022-08-19T05:03:35;18.70;99.90
41294;DHT22;27037;52.010;4.446;2022-08-19T05:06:06;18.70;99.90
41294;DHT22;27037;52.010;4.446;2022-08-19T05:08:34;18.80;99.90
41294;DHT22;27037;52.010;4.446;2022-08-19T05:11:10;18.80;99.90
41294;DHT22;27037;52.010;4.446;2022-08-19T05:13:36;18.90;99.90
41294;DHT22;27037;52.010;4.446;2022-08-19T05:16:02;18.90;99.90
41294;DHT22;27037;52.010;4.446;2022-08-19T05:18:28;18.90;99.90
41294;DHT22;27037;52.010;4.446;2022-08-19T05:21:14;19.00;99.90
41294;DHT22;27037;52.010;4.446;2022-08-19T05:23:58;19.00;99.90
41294;DHT22;27037;52.010;4.446;2022-08-19T05:26:25;19.00;99.90
41294;DHT22;27037;52.010;4.446;2022-08-19T05:28:52;19.10;99.90
41294;DHT22;27037;52.010;4.446;2022-08-19T05:31:18;19.10;99.90
41294;DHT22;27037;52.010;4.446;2022-08-19T05:33:44;19.10;99.90
41294;DHT22;27037;52.010;4.446;2022-08-19T05:36:10;19.10;99.90
41294;DHT22;27037;52.010;4.446;2022-08-19T05:38:36;19.10;99.90
41294;DHT22;27037;52.010;4.446;2022-08-19T05:41:07;19.20;99.90
41294;DHT22;27037;52.010;4.446;2022-08-19T05:43:33;19.20;99.90
41294;DHT22;27037;52.010;4.446;2022-08-19T05:45:59;19.20;99.90
41294;DHT22;27037;52.010;4.446;2022-08-19T05:48:26;19.30;99.90
41294;DHT22;27037;52.010;4.446;2022-08-19T05:50:51;19.40;99.90
41294;DHT22;27037;52.010;4.446;2022-08-19T05:53:18;19.40;99.90
41294;DHT22;27037;52.010;4.446;2022-08-19T05:55:44;19.40;99.90
41294;DHT22;27037;52.010;4.446;2022-08-19T05:58:09;19.50;99.90
41294;DHT22;27037;52.010;4.446;2022-08-19T06:00:36;19.50;99.90
41294;DHT22;27037;52.010;4.446;2022-08-19T06:03:02;19.60;99.90
41294;DHT22;27037;52.010;4.446;2022-08-19T06:05:31;19.60;99.90
41294;DHT22;27037;52.010;4.446;2022-08-19T06:07:57;19.70;99.90
41294;DHT22;27037;52.010;4.446;2022-08-19T06:10:24;19.70;99.90
41294;DHT22;27037;52.010;4.446;2022-08-19T06:12:51;19.70;99.90
41294;DHT22;27037;52.010;4.446;2022-08-19T06:15:17;19.80;99.90
41294;DHT22;27037;52.010;4.446;2022-08-19T06:17:42;19.80;99.90
41294;DHT22;27037;52.010;4.446;2022-08-19T06:20:12;19.90;99.90
41294;DHT22;27037;52.010;4.446;2022-08-19T06:22:43;19.90;99.90
41294;DHT22;27037;52.010;4.446;2022-08-19T06:25:10;19.90;99.90
41294;DHT22;27037;52.010;4.446;2022-08-19T06:27:36;19.90;99.90
41294;DHT22;27037;52.010;4.446;2022-08-19T06:30:03;20.00;99.90
41294;DHT22;27037;52.010;4.446;2022-08-19T06:32:29;20.00;99.90
41294;DHT22;27037;52.010;4.446;2022-08-19T06:34:55;20.00;99.90
41294;DHT22;27037;52.010;4.446;2022-08-19T06:37:21;20.00;99.90
41294;DHT22;27037;52.010;4.446;2022-08-19T06:39:48;20.10;99.90
41294;DHT22;27037;52.010;4.446;2022-08-19T06:42:13;20.10;99.90
41294;DHT22;27037;52.010;4.446;2022-08-19T06:44:42;20.10;99.90
41294;DHT22;27037;52.010;4.446;2022-08-19T06:47:11;20.20;99.90
41294;DHT22;27037;52.010;4.446;2022-08-19T06:49:37;20.20;99.90
41294;DHT22;27037;52.010;4.446;2022-08-19T06:52:03;20.20;99.90
41294;DHT22;27037;52.010;4.446;2022-08-19T06:54:29;20.30;99.90
41294;DHT22;27037;52.010;4.446;2022-08-19T06:56:55;20.30;99.90
41294;DHT22;27037;52.010;4.446;2022-08-19T06:59:23;20.40;99.90
41294;DHT22;27037;52.010;4.446;2022-08-19T07:01:53;20.40;99.90
41294;DHT22;27037;52.010;4.446;2022-08-19T07:04:23;20.50;99.90
41294;DHT22;27037;52.010;4.446;2022-08-19T07:06:49;20.60;99.90
41294;DHT22;27037;52.010;4.446;2022-08-19T07:09:17;20.70;99.90
41294;DHT22;27037;52.010;4.446;2022-08-19T07:11:48;20.80;99.90
41294;DHT22;27037;52.010;4.446;2022-08-19T07:14:15;20.90;99.90
41294;DHT22;27037;52.010;4.446;2022-08-19T07:16:43;21.00;99.90
41294;DHT22;27037;52.010;4.446;2022-08-19T07:19:11;21.00;99.90
41294;DHT22;27037;52.010;4.446;2022-08-19T07:21:36;21.00;99.90
41294;DHT22;27037;52.010;4.446;2022-08-19T07:24:03;21.10;99.90
41294;DHT22;27037;52.010;4.446;2022-08-19T07:26:31;21.10;99.90
41294;DHT22;27037;52.010;4.446;2022-08-19T07:28:58;21.10;99.90
41294;DHT22;27037;52.010;4.446;2022-08-19T07:31:27;21.10;99.90
41294;DHT22;27037;52.010;4.446;2022-08-19T07:33:55;21.10;99.90
41294;DHT22;27037;52.010;4.446;2022-08-19T07:36:24;21.10;99.90
41294;DHT22;27037;52.010;4.446;2022-08-19T07:38:50;21.10;99.90
41294;DHT22;27037;52.010;4.446;2022-08-19T07:41:22;21.10;99.90
41294;DHT22;27037;52.010;4.446;2022-08-19T07:43:49;21.20;99.90
41294;DHT22;27037;52.010;4.446;2022-08-19T07:46:15;21.20;99.90
41294;DHT22;27037;52.010;4.446;2022-08-19T07:48:43;21.20;99.90
41294;DHT22;27037;52.010;4.446;2022-08-19T07:51:13;21.30;99.90
41294;DHT22;27037;52.010;4.446;2022-08-19T07:53:38;21.20;99.90
41294;DHT22;27037;52.010;4.446;2022-08-19T07:56:04;21.30;99.90
41294;DHT22;27037;52.010;4.446;2022-08-19T07:58:32;21.30;99.90
41294;DHT22;27037;52.010;4.446;2022-08-19T08:00:59;21.30;99.90
41294;DHT22;27037;52.010;4.446;2022-08-19T08:03:27;21.30;99.90
41294;DHT22;27037;52.010;4.446;2022-08-19T08:06:12;21.40;99.90
41294;DHT22;27037;52.010;4.446;2022-08-19T08:08:57;21.50;99.90
41294;DHT22;27037;52.010;4.446;2022-08-19T08:14:20;21.60;99.90
41294;DHT22;27037;52.010;4.446;2022-08-19T08:16:48;21.70;99.90
41294;DHT22;27037;52.010;4.446;2022-08-19T08:19:15;21.80;99.90
41294;DHT22;27037;52.010;4.446;2022-08-19T08:21:41;21.90;99.90
41294;DHT22;27037;52.010;4.446;2022-08-19T08:24:07;22.00;99.90
41294;DHT22;27037;52.010;4.446;2022-08-19T08:26:33;22.00;99.90
41294;DHT22;27037;52.010;4.446;2022-08-19T08:28:59;22.10;99.90
41294;DHT22;27037;52.010;4.446;2022-08-19T08:31:24;22.10;99.90
41294;DHT22;27037;52.010;4.446;2022-08-19T08:33:50;22.10;99.90
41294;DHT22;27037;52.010;4.446;2022-08-19T08:36:16;22.10;99.90
41294;DHT22;27037;52.010;4.446;2022-08-19T08:38:43;22.20;99.90
41294;DHT22;27037;52.010;4.446;2022-08-19T08:44:05;22.30;99.90
41294;DHT22;27037;52.010;4.446;2022-08-19T08:46:35;22.30;99.90
41294;DHT22;27037;52.010;4.446;2022-08-19T08:49:24;22.40;99.90
41294;DHT22;27037;52.010;4.446;2022-08-19T08:52:04;22.50;99.90
41294;DHT22;27037;52.010;4.446;2022-08-19T08:54:42;22.60;99.90
41294;DHT22;27037;52.010;4.446;2022-08-19T08:57:37;22.80;99.90
41294;DHT22;27037;52.010;4.446;2022-08-19T09:00:06;23.00;99.90
41294;DHT22;27037;52.010;4.446;2022-08-19T09:02:32;23.20;99.90
41294;DHT22;27037;52.010;4.446;2022-08-19T09:04:57;23.20;99.90
41294;DHT22;27037;52.010;4.446;2022-08-19T09:10:10;23.10;99.90
41294;DHT22;27037;52.010;4.446;2022-08-19T09:15:30;23.10;99.90
41294;DHT22;27037;52.010;4.446;2022-08-19T09:18:00;23.10;99.90
41294;DHT22;27037;52.010;4.446;2022-08-19T09:20:27;23.00;99.90
41294;DHT22;27037;52.010;4.446;2022-08-19T09:22:53;23.00;99.90
41294;DHT22;27037;52.010;4.446;2022-08-19T09:25:21;23.10;99.90
41294;DHT22;27037;52.010;4.446;2022-08-19T09:27:48;23.20;99.90
41294;DHT22;27037;52.010;4.446;2022-08-19T09:30:19;23.20;99.90
41294;DHT22;27037;52.010;4.446;2022-08-19T09:32:46;23.20;99.90
41294;DHT22;27037;52.010;4.446;2022-08-19T09:35:13;23.20;99.90
41294;DHT22;27037;52.010;4.446;2022-08-19T09:37:39;23.10;99.90
41294;DHT22;27037;52.010;4.446;2022-08-19T09:40:05;23.10;99.90
41294;DHT22;27037;52.010;4.446;2022-08-19T09:42:32;23.10;99.90
41294;DHT22;27037;52.010;4.446;2022-08-19T09:44:59;23.00;99.90
41294;DHT22;27037;52.010;4.446;2022-08-19T09:47:25;23.00;99.90
41294;DHT22;27037;52.010;4.446;2022-08-19T09:49:50;23.00;99.90
41294;DHT22;27037;52.010;4.446;2022-08-19T09:52:16;23.00;99.90
41294;DHT22;27037;52.010;4.446;2022-08-19T09:54:43;23.00;99.90
41294;DHT22;27037;52.010;4.446;2022-08-19T09:57:09;23.10;99.90
41294;DHT22;27037;52.010;4.446;2022-08-19T09:59:35;23.10;99.90
41294;DHT22;27037;52.010;4.446;2022-08-19T10:02:02;23.30;99.90
41294;DHT22;27037;52.010;4.446;2022-08-19T10:04:27;23.30;99.90
41294;DHT22;27037;52.010;4.446;2022-08-19T10:07:13;23.50;99.90
41294;DHT22;27037;52.010;4.446;2022-08-19T10:09:38;23.60;99.90
41294;DHT22;27037;52.010;4.446;2022-08-19T10:12:07;23.70;99.90
41294;DHT22;27037;52.010;4.446;2022-08-19T10:14:33;23.90;99.90
41294;DHT22;27037;52.010;4.446;2022-08-19T10:16:59;24.10;99.90
41294;DHT22;27037;52.010;4.446;2022-08-19T10:19:26;24.30;99.90
41294;DHT22;27037;52.010;4.446;2022-08-19T10:21:54;24.50;99.90
41294;DHT22;27037;52.010;4.446;2022-08-19T10:24:19;24.70;99.90
41294;DHT22;27037;52.010;4.446;2022-08-19T10:26:45;24.70;99.90
41294;DHT22;27037;52.010;4.446;2022-08-19T10:29:13;24.70;99.90
41294;DHT22;27037;52.010;4.446;2022-08-19T10:31:41;24.70;99.90
41294;DHT22;27037;52.010;4.446;2022-08-19T10:34:07;24.60;99.90
41294;DHT22;27037;52.010;4.446;2022-08-19T10:36:35;24.50;99.90
41294;DHT22;27037;52.010;4.446;2022-08-19T10:39:06;24.50;99.90
41294;DHT22;27037;52.010;4.446;2022-08-19T10:41:34;24.50;99.90
41294;DHT22;27037;52.010;4.446;2022-08-19T10:44:05;24.40;99.90
41294;DHT22;27037;52.010;4.446;2022-08-19T10:46:33;24.40;99.90
41294;DHT22;27037;52.010;4.446;2022-08-19T10:49:02;24.30;99.90
41294;DHT22;27037;52.010;4.446;2022-08-19T10:51:27;24.20;99.90
41294;DHT22;27037;52.010;4.446;2022-08-19T10:54:12;24.10;99.90
41294;DHT22;27037;52.010;4.446;2022-08-19T10:56:38;24.10;99.90
41294;DHT22;27037;52.010;4.446;2022-08-19T10:59:23;24.00;99.90
41294;DHT22;27037;52.010;4.446;2022-08-19T11:01:50;23.90;99.90
41294;DHT22;27037;52.010;4.446;2022-08-19T11:04:18;23.90;99.90
41294;DHT22;27037;52.010;4.446;2022-08-19T11:06:45;23.90;99.90
41294;DHT22;27037;52.010;4.446;2022-08-19T11:09:13;23.80;99.90
41294;DHT22;27037;52.010;4.446;2022-08-19T11:11:40;23.70;99.90
41294;DHT22;27037;52.010;4.446;2022-08-19T11:14:08;23.70;99.90
41294;DHT22;27037;52.010;4.446;2022-08-19T11:16:35;23.70;99.90
41294;DHT22;27037;52.010;4.446;2022-08-19T11:19:01;23.70;99.90
41294;DHT22;27037;52.010;4.446;2022-08-19T11:21:35;23.80;99.90
41294;DHT22;27037;52.010;4.446;2022-08-19T11:24:04;23.80;99.90
41294;DHT22;27037;52.010;4.446;2022-08-19T11:26:31;23.80;99.90
41294;DHT22;27037;52.010;4.446;2022-08-19T11:28:58;23.80;99.90
41294;DHT22;27037;52.010;4.446;2022-08-19T11:31:29;23.90;99.90
41294;DHT22;27037;52.010;4.446;2022-08-19T11:34:00;23.90;99.90
41294;DHT22;27037;52.010;4.446;2022-08-19T11:36:29;24.00;99.90
41294;DHT22;27037;52.010;4.446;2022-08-19T11:38:55;24.10;99.90
41294;DHT22;27037;52.010;4.446;2022-08-19T11:41:22;24.10;99.90
41294;DHT22;27037;52.010;4.446;2022-08-19T11:43:52;24.10;99.90
41294;DHT22;27037;52.010;4.446;2022-08-19T11:46:21;24.20;99.90
41294;DHT22;27037;52.010;4.446;2022-08-19T11:48:48;24.20;99.90
41294;DHT22;27037;52.010;4.446;2022-08-19T11:51:18;24.20;99.90
41294;DHT22;27037;52.010;4.446;2022-08-19T11:53:44;24.30;99.90
41294;DHT22;27037;52.010;4.446;2022-08-19T11:56:11;24.50;99.90
41294;DHT22;27037;52.010;4.446;2022-08-19T11:58:38;24.50;99.90
41294;DHT22;27037;52.010;4.446;2022-08-19T12:01:15;24.60;99.90
41294;DHT22;27037;52.010;4.446;2022-08-19T12:03:42;24.70;99.90
41294;DHT22;27037;52.010;4.446;2022-08-19T12:06:11;24.70;99.90
41294;DHT22;27037;52.010;4.446;2022-08-19T12:08:39;24.80;99.90
41294;DHT22;27037;52.010;4.446;2022-08-19T12:11:05;24.80;99.90
41294;DHT22;27037;52.010;4.446;2022-08-19T12:13:34;24.70;99.90
41294;DHT22;27037;52.010;4.446;2022-08-19T12:16:00;24.80;99.90
41294;DHT22;27037;52.010;4.446;2022-08-19T12:18:26;24.80;99.90
41294;DHT22;27037;52.010;4.446;2022-08-19T12:20:53;24.70;99.90
41294;DHT22;27037;52.010;4.446;2022-08-19T12:23:20;24.80;99.90
41294;DHT22;27037;52.010;4.446;2022-08-19T12:25:48;24.90;99.90
41294;DHT22;27037;52.010;4.446;2022-08-19T12:28:21;24.90;99.90
41294;DHT22;27037;52.010;4.446;2022-08-19T12:30:49;24.90;99.90
41294;DHT22;27037;52.010;4.446;2022-08-19T12:33:17;24.90;99.90
41294;DHT22;27037;52.010;4.446;2022-08-19T12:35:44;24.90;99.90
41294;DHT22;27037;52.010;4.446;2022-08-19T12:38:12;25.00;99.90
41294;DHT22;27037;52.010;4.446;2022-08-19T12:40:38;25.00;99.90
41294;DHT22;27037;52.010;4.446;2022-08-19T12:43:05;25.00;99.90
41294;DHT22;27037;52.010;4.446;2022-08-19T12:45:31;25.00;99.90
41294;DHT22;27037;52.010;4.446;2022-08-19T12:47:57;25.00;99.90
41294;DHT22;27037;52.010;4.446;2022-08-19T12:50:23;25.00;99.90
41294;DHT22;27037;52.010;4.446;2022-08-19T12:52:49;25.10;99.90
41294;DHT22;27037;52.010;4.446;2022-08-19T12:55:15;25.10;99.90
41294;DHT22;27037;52.010;4.446;2022-08-19T12:57:42;25.00;99.90
41294;DHT22;27037;52.010;4.446;2022-08-19T13:00:11;25.00;99.90
41294;DHT22;27037;52.010;4.446;2022-08-19T13:02:39;25.00;99.90
41294;DHT22;27037;52.010;4.446;2022-08-19T13:05:08;25.00;99.90
41294;DHT22;27037;52.010;4.446;2022-08-19T13:07:34;25.10;99.90
41294;DHT22;27037;52.010;4.446;2022-08-19T13:10:00;25.10;99.90
41294;DHT22;27037;52.010;4.446;2022-08-19T13:12:26;25.10;99.90
41294;DHT22;27037;52.010;4.446;2022-08-19T13:14:53;25.10;99.90
41294;DHT22;27037;52.010;4.446;2022-08-19T13:17:19;25.20;99.90
41294;DHT22;27037;52.010;4.446;2022-08-19T13:19:45;25.20;99.90
41294;DHT22;27037;52.010;4.446;2022-08-19T13:22:10;25.30;99.90
41294;DHT22;27037;52.010;4.446;2022-08-19T13:24:37;25.40;99.90
41294;DHT22;27037;52.010;4.446;2022-08-19T13:27:03;25.40;99.90
41294;DHT22;27037;52.010;4.446;2022-08-19T13:29:29;25.30;99.90
41294;DHT22;27037;52.010;4.446;2022-08-19T13:32:13;25.20;99.90
41294;DHT22;27037;52.010;4.446;2022-08-19T13:34:57;25.20;99.90
41294;DHT22;27037;52.010;4.446;2022-08-19T13:37:23;25.10;99.90
41294;DHT22;27037;52.010;4.446;2022-08-19T13:40:08;25.10;99.90
41294;DHT22;27037;52.010;4.446;2022-08-19T13:42:38;25.10;99.90
41294;DHT22;27037;52.010;4.446;2022-08-19T13:45:04;25.10;99.90
41294;DHT22;27037;52.010;4.446;2022-08-19T13:47:32;25.10;99.90
41294;DHT22;27037;52.010;4.446;2022-08-19T13:50:00;25.10;99.90
41294;DHT22;27037;52.010;4.446;2022-08-19T13:52:26;25.00;99.90
41294;DHT22;27037;52.010;4.446;2022-08-19T13:54:51;24.90;99.90
41294;DHT22;27037;52.010;4.446;2022-08-19T13:57:17;24.90;99.90
41294;DHT22;27037;52.010;4.446;2022-08-19T13:59:43;24.90;99.90
41294;DHT22;27037;52.010;4.446;2022-08-19T14:02:08;25.00;99.90
41294;DHT22;27037;52.010;4.446;2022-08-19T14:04:34;25.10;99.90
41294;DHT22;27037;52.010;4.446;2022-08-19T14:06:59;25.10;99.90
41294;DHT22;27037;52.010;4.446;2022-08-19T14:09:25;25.10;99.90
41294;DHT22;27037;52.010;4.446;2022-08-19T14:11:50;25.10;99.90
41294;DHT22;27037;52.010;4.446;2022-08-19T14:14:16;25.10;99.90
41294;DHT22;27037;52.010;4.446;2022-08-19T14:16:42;25.00;99.90
41294;DHT22;27037;52.010;4.446;2022-08-19T14:19:08;25.00;99.90
41294;DHT22;27037;52.010;4.446;2022-08-19T14:21:33;25.00;99.90
41294;DHT22;27037;52.010;4.446;2022-08-19T14:24:01;25.00;99.90
41294;DHT22;27037;52.010;4.446;2022-08-19T14:26:26;24.90;99.90
41294;DHT22;27037;52.010;4.446;2022-08-19T14:28:52;24.90;99.90
41294;DHT22;27037;52.010;4.446;2022-08-19T14:31:19;24.80;99.90
41294;DHT22;27037;52.010;4.446;2022-08-19T14:33:46;24.70;99.90
41294;DHT22;27037;52.010;4.446;2022-08-19T14:36:12;24.70;99.90
41294;DHT22;27037;52.010;4.446;2022-08-19T14:38:38;24.60;99.90
41294;DHT22;27037;52.010;4.446;2022-08-19T14:41:19;24.60;99.90
41294;DHT22;27037;52.010;4.446;2022-08-19T14:43:47;24.60;99.90
41294;DHT22;27037;52.010;4.446;2022-08-19T14:46:19;24.50;99.90
41294;DHT22;27037;52.010;4.446;2022-08-19T14:48:46;24.50;99.90
41294;DHT22;27037;52.010;4.446;2022-08-19T14:51:13;24.50;99.90
41294;DHT22;27037;52.010;4.446;2022-08-19T14:53:39;24.40;99.90
41294;DHT22;27037;52.010;4.446;2022-08-19T14:56:10;24.40;99.90
41294;DHT22;27037;52.010;4.446;2022-08-19T14:58:36;24.30;99.90
41294;DHT22;27037;52.010;4.446;2022-08-19T15:01:02;24.30;99.90
41294;DHT22;27037;52.010;4.446;2022-08-19T15:03:29;24.20;99.90
41294;DHT22;27037;52.010;4.446;2022-08-19T15:05:55;24.10;99.90
41294;DHT22;27037;52.010;4.446;2022-08-19T15:08:22;24.10;99.90
41294;DHT22;27037;52.010;4.446;2022-08-19T15:10:50;24.10;99.90
41294;DHT22;27037;52.010;4.446;2022-08-19T15:13:16;24.00;99.90
41294;DHT22;27037;52.010;4.446;2022-08-19T15:15:42;24.00;99.90
41294;DHT22;27037;52.010;4.446;2022-08-19T15:18:07;23.90;99.90
41294;DHT22;27037;52.010;4.446;2022-08-19T15:20:36;23.70;99.90
41294;DHT22;27037;52.010;4.446;2022-08-19T15:23:02;23.50;99.90
41294;DHT22;27037;52.010;4.446;2022-08-19T15:25:28;23.30;99.90
41294;DHT22;27037;52.010;4.446;2022-08-19T15:27:54;23.10;99.90
41294;DHT22;27037;52.010;4.446;2022-08-19T15:30:22;23.10;99.90
41294;DHT22;27037;52.010;4.446;2022-08-19T15:32:48;23.00;99.90
41294;DHT22;27037;52.010;4.446;2022-08-19T15:35:14;22.90;99.90
41294;DHT22;27037;52.010;4.446;2022-08-19T15:37:39;22.80;99.90
41294;DHT22;27037;52.010;4.446;2022-08-19T15:40:06;22.80;99.90
41294;DHT22;27037;52.010;4.446;2022-08-19T15:42:35;22.70;99.90
41294;DHT22;27037;52.010;4.446;2022-08-19T15:45:01;22.60;99.90
41294;DHT22;27037;52.010;4.446;2022-08-19T15:47:28;22.50;99.90